sensor_id;sensor_type;location;lat;lon;timestamp;P1;durP1;ratioP1;P2;durP2;ratioP2
757;SDS011;363;48.764;9.172;2024-02-14T00:00:49;6.68;;;4.20;;
757;SDS011;363;48.764;9.172;2024-02-14T00:10:37;8.15;;;4.32;;
757;SDS011;363;48.764;9.172;2024-02-14T00:20:35;6.47;;;4.07;;
757;SDS011;363;48.764;9.172;2024-02-14T00:26:43;5.50;;;3.83;;
757;SDS011;363;48.764;9.172;2024-02-14T00:55:00;6.97;;;3.83;;
757;SDS011;363;48.764;9.172;2024-02-14T00:58:02;5.57;;;3.38;;
757;SDS011;363;48.764;9.172;2024-02-14T01:01:07;6.18;;;3.40;;
757;SDS011;363;48.764;9.172;2024-02-14T01:04:11;4.78;;;3.70;;
757;SDS011;363;48.764;9.172;2024-02-14T01:06:57;3.42;;;3.08;;
757;SDS011;363;48.764;9.172;2024-02-14T01:13:55;4.05;;;3.50;;
757;SDS011;363;48.764;9.172;2024-02-14T01:17:16;5.25;;;3.85;;
757;SDS011;363;48.764;9.172;2024-02-14T01:20:19;5.10;;;3.30;;
757;SDS011;363;48.764;9.172;2024-02-14T01:23:20;6.18;;;3.28;;
757;SDS011;363;48.764;9.172;2024-02-14T01:33:19;5.13;;;3.30;;
757;SDS011;363;48.764;9.172;2024-02-14T01:36:11;3.40;;;3.10;;
757;SDS011;363;48.764;9.172;2024-02-14T01:39:25;4.80;;;3.13;;
757;SDS011;363;48.764;9.172;2024-02-14T01:42:39;6.80;;;3.55;;
757;SDS011;363;48.764;9.172;2024-02-14T01:45:38;4.18;;;3.00;;
757;SDS011;363;48.764;9.172;2024-02-14T01:48:20;4.15;;;2.92;;
757;SDS011;363;48.764;9.172;2024-02-14T01:50:49;3.70;;;2.75;;
757;SDS011;363;48.764;9.172;2024-02-14T01:53:31;3.45;;;3.13;;
757;SDS011;363;48.764;9.172;2024-02-14T01:56:09;4.40;;;3.38;;
757;SDS011;363;48.764;9.172;2024-02-14T01:58:41;3.42;;;3.13;;
757;SDS011;363;48.764;9.172;2024-02-14T02:01:33;3.63;;;2.95;;
757;SDS011;363;48.764;9.172;2024-02-14T02:04:25;6.72;;;3.47;;
757;SDS011;363;48.764;9.172;2024-02-14T02:07:11;3.33;;;3.03;;
757;SDS011;363;48.764;9.172;2024-02-14T02:10:26;4.40;;;3.20;;
757;SDS011;363;48.764;9.172;2024-02-14T02:13:08;4.30;;;3.22;;
757;SDS011;363;48.764;9.172;2024-02-14T02:15:46;3.72;;;2.90;;
757;SDS011;363;48.764;9.172;2024-02-14T02:18:51;3.28;;;2.72;;
757;SDS011;363;48.764;9.172;2024-02-14T02:21:41;4.28;;;3.40;;
757;SDS011;363;48.764;9.172;2024-02-14T02:24:12;4.82;;;3.20;;
757;SDS011;363;48.764;9.172;2024-02-14T02:26:58;3.25;;;2.85;;
757;SDS011;363;48.764;9.172;2024-02-14T02:29:57;2.75;;;2.55;;
757;SDS011;363;48.764;9.172;2024-02-14T02:36:27;3.13;;;2.83;;
757;SDS011;363;48.764;9.172;2024-02-14T02:39:16;4.88;;;3.00;;
757;SDS011;363;48.764;9.172;2024-02-14T02:42:24;3.25;;;2.95;;
757;SDS011;363;48.764;9.172;2024-02-14T02:44:55;2.97;;;2.65;;
757;SDS011;363;48.764;9.172;2024-02-14T02:48:04;4.32;;;2.90;;
757;SDS011;363;48.764;9.172;2024-02-14T02:50:59;4.63;;;3.40;;
757;SDS011;363;48.764;9.172;2024-02-14T02:53:43;3.85;;;3.00;;
757;SDS011;363;48.764;9.172;2024-02-14T02:56:39;3.38;;;3.08;;
757;SDS011;363;48.764;9.172;2024-02-14T02:59:28;3.40;;;2.90;;
757;SDS011;363;48.764;9.172;2024-02-14T03:02:13;3.53;;;3.20;;
757;SDS011;363;48.764;9.172;2024-02-14T03:04:55;4.40;;;3.40;;
757;SDS011;363;48.764;9.172;2024-02-14T03:11:09;3.53;;;3.20;;
757;SDS011;363;48.764;9.172;2024-02-14T03:14:20;3.05;;;2.85;;
757;SDS011;363;48.764;9.172;2024-02-14T03:17:00;3.53;;;3.20;;
757;SDS011;363;48.764;9.172;2024-02-14T03:20:25;3.55;;;3.20;;
757;SDS011;363;48.764;9.172;2024-02-14T03:23:11;3.35;;;3.05;;
757;SDS011;363;48.764;9.172;2024-02-14T03:26:26;3.83;;;3.40;;
757;SDS011;363;48.764;9.172;2024-02-14T03:29:46;3.80;;;3.50;;
757;SDS011;363;48.764;9.172;2024-02-14T03:32:46;4.38;;;3.97;;
757;SDS011;363;48.764;9.172;2024-02-14T03:35:49;3.50;;;3.10;;
757;SDS011;363;48.764;9.172;2024-02-14T03:42:47;3.40;;;3.10;;
757;SDS011;363;48.764;9.172;2024-02-14T03:46:02;3.80;;;3.13;;
757;SDS011;363;48.764;9.172;2024-02-14T03:49:01;3.50;;;3.20;;
757;SDS011;363;48.764;9.172;2024-02-14T03:52:20;3.40;;;3.10;;
757;SDS011;363;48.764;9.172;2024-02-14T03:55:24;4.53;;;3.58;;
757;SDS011;363;48.764;9.172;2024-02-14T03:58:34;3.65;;;3.30;;
757;SDS011;363;48.764;9.172;2024-02-14T04:01:29;3.67;;;3.30;;
757;SDS011;363;48.764;9.172;2024-02-14T04:04:24;4.20;;;3.00;;
757;SDS011;363;48.764;9.172;2024-02-14T04:06:57;3.40;;;3.10;;
757;SDS011;363;48.764;9.172;2024-02-14T04:10:10;4.35;;;3.00;;
757;SDS011;363;48.764;9.172;2024-02-14T04:13:20;4.55;;;3.17;;
757;SDS011;363;48.764;9.172;2024-02-14T04:19:00;3.47;;;3.17;;
757;SDS011;363;48.764;9.172;2024-02-14T04:22:21;3.65;;;2.70;;
757;SDS011;363;48.764;9.172;2024-02-14T04:25:20;4.72;;;3.60;;
757;SDS011;363;48.764;9.172;2024-02-14T04:27:53;5.25;;;3.45;;
757;SDS011;363;48.764;9.172;2024-02-14T04:30:58;6.28;;;4.57;;
757;SDS011;363;48.764;9.172;2024-02-14T04:33:23;5.17;;;3.57;;
757;SDS011;363;48.764;9.172;2024-02-14T04:35:49;4.60;;;3.53;;
757;SDS011;363;48.764;9.172;2024-02-14T04:38:15;2.80;;;2.60;;
757;SDS011;363;48.764;9.172;2024-02-14T04:40:41;4.30;;;2.80;;
757;SDS011;363;48.764;9.172;2024-02-14T04:43:06;3.57;;;3.20;;
757;SDS011;363;48.764;9.172;2024-02-14T04:45:32;4.30;;;3.30;;
757;SDS011;363;48.764;9.172;2024-02-14T04:47:58;3.20;;;2.77;;
757;SDS011;363;48.764;9.172;2024-02-14T04:50:23;3.40;;;3.10;;
757;SDS011;363;48.764;9.172;2024-02-14T04:52:49;3.83;;;2.83;;
757;SDS011;363;48.764;9.172;2024-02-14T04:55:15;3.30;;;3.00;;
757;SDS011;363;48.764;9.172;2024-02-14T04:57:40;4.60;;;2.67;;
757;SDS011;363;48.764;9.172;2024-02-14T05:00:06;4.50;;;3.20;;
757;SDS011;363;48.764;9.172;2024-02-14T05:02:33;3.25;;;2.95;;
757;SDS011;363;48.764;9.172;2024-02-14T05:05:00;4.27;;;2.97;;
757;SDS011;363;48.764;9.172;2024-02-14T05:07:26;3.30;;;2.60;;
757;SDS011;363;48.764;9.172;2024-02-14T05:09:52;3.83;;;3.27;;
757;SDS011;363;48.764;9.172;2024-02-14T05:12:20;4.40;;;3.15;;
757;SDS011;363;48.764;9.172;2024-02-14T05:14:45;4.27;;;3.00;;
757;SDS011;363;48.764;9.172;2024-02-14T05:17:11;4.47;;;4.07;;
757;SDS011;363;48.764;9.172;2024-02-14T05:19:36;3.10;;;2.80;;
757;SDS011;363;48.764;9.172;2024-02-14T05:22:02;3.30;;;2.83;;
757;SDS011;363;48.764;9.172;2024-02-14T05:24:27;3.27;;;2.97;;
757;SDS011;363;48.764;9.172;2024-02-14T05:26:54;2.85;;;2.55;;
757;SDS011;363;48.764;9.172;2024-02-14T05:29:20;3.43;;;2.50;;
757;SDS011;363;48.764;9.172;2024-02-14T05:31:46;5.80;;;3.80;;
757;SDS011;363;48.764;9.172;2024-02-14T05:34:13;3.38;;;3.08;;
757;SDS011;363;48.764;9.172;2024-02-14T05:36:39;3.70;;;3.13;;
757;SDS011;363;48.764;9.172;2024-02-14T05:39:05;4.47;;;4.07;;
757;SDS011;363;48.764;9.172;2024-02-14T05:41:31;3.03;;;2.80;;
757;SDS011;363;48.764;9.172;2024-02-14T05:43:58;7.68;;;4.97;;
757;SDS011;363;48.764;9.172;2024-02-14T05:46:23;4.30;;;3.90;;
757;SDS011;363;48.764;9.172;2024-02-14T05:48:50;3.65;;;2.58;;
757;SDS011;363;48.764;9.172;2024-02-14T05:51:17;3.60;;;3.30;;
757;SDS011;363;48.764;9.172;2024-02-14T05:53:42;2.90;;;2.60;;
757;SDS011;363;48.764;9.172;2024-02-14T05:56:08;3.67;;;2.87;;
757;SDS011;363;48.764;9.172;2024-02-14T05:58:33;2.93;;;2.03;;
757;SDS011;363;48.764;9.172;2024-02-14T06:00:59;4.87;;;2.73;;
757;SDS011;363;48.764;9.172;2024-02-14T06:03:24;3.40;;;2.60;;
757;SDS011;363;48.764;9.172;2024-02-14T06:05:50;4.20;;;2.10;;
757;SDS011;363;48.764;9.172;2024-02-14T06:08:15;2.50;;;2.30;;
757;SDS011;363;48.764;9.172;2024-02-14T06:10:41;3.37;;;2.50;;
757;SDS011;363;48.764;9.172;2024-02-14T06:13:07;3.03;;;2.30;;
757;SDS011;363;48.764;9.172;2024-02-14T06:15:33;4.10;;;2.72;;
757;SDS011;363;48.764;9.172;2024-02-14T06:17:59;5.95;;;2.80;;
757;SDS011;363;48.764;9.172;2024-02-14T06:20:24;2.70;;;2.50;;
757;SDS011;363;48.764;9.172;2024-02-14T06:22:50;4.00;;;3.60;;
757;SDS011;363;48.764;9.172;2024-02-14T06:25:16;3.35;;;3.00;;
757;SDS011;363;48.764;9.172;2024-02-14T06:27:42;3.80;;;3.17;;
757;SDS011;363;48.764;9.172;2024-02-14T06:30:08;2.80;;;2.60;;
757;SDS011;363;48.764;9.172;2024-02-14T06:32:34;5.15;;;2.95;;
757;SDS011;363;48.764;9.172;2024-02-14T06:35:00;3.67;;;2.70;;
757;SDS011;363;48.764;9.172;2024-02-14T06:37:26;5.75;;;2.70;;
757;SDS011;363;48.764;9.172;2024-02-14T06:39:52;3.43;;;2.23;;
757;SDS011;363;48.764;9.172;2024-02-14T06:42:17;5.83;;;2.53;;
757;SDS011;363;48.764;9.172;2024-02-14T06:44:44;4.28;;;2.70;;
757;SDS011;363;48.764;9.172;2024-02-14T06:47:10;3.80;;;2.60;;
757;SDS011;363;48.764;9.172;2024-02-14T06:49:36;4.53;;;2.50;;
757;SDS011;363;48.764;9.172;2024-02-14T06:52:01;2.40;;;2.00;;
757;SDS011;363;48.764;9.172;2024-02-14T06:54:27;6.30;;;3.10;;
757;SDS011;363;48.764;9.172;2024-02-14T06:56:52;3.70;;;3.00;;
757;SDS011;363;48.764;9.172;2024-02-14T06:59:18;2.90;;;2.50;;
757;SDS011;363;48.764;9.172;2024-02-14T07:01:43;2.47;;;2.00;;
757;SDS011;363;48.764;9.172;2024-02-14T07:04:09;2.63;;;2.20;;
757;SDS011;363;48.764;9.172;2024-02-14T07:06:35;9.23;;;3.17;;
757;SDS011;363;48.764;9.172;2024-02-14T07:09:01;6.77;;;2.23;;
757;SDS011;363;48.764;9.172;2024-02-14T07:11:26;6.50;;;2.70;;
757;SDS011;363;48.764;9.172;2024-02-14T07:13:52;3.33;;;2.97;;
757;SDS011;363;48.764;9.172;2024-02-14T07:16:18;6.40;;;3.27;;
757;SDS011;363;48.764;9.172;2024-02-14T07:18:43;2.37;;;2.17;;
757;SDS011;363;48.764;9.172;2024-02-14T07:21:09;2.27;;;1.80;;
757;SDS011;363;48.764;9.172;2024-02-14T07:23:35;4.63;;;2.60;;
757;SDS011;363;48.764;9.172;2024-02-14T07:26:00;2.37;;;1.90;;
757;SDS011;363;48.764;9.172;2024-02-14T07:28:26;1.90;;;1.73;;
757;SDS011;363;48.764;9.172;2024-02-14T07:30:52;1.97;;;1.80;;
757;SDS011;363;48.764;9.172;2024-02-14T07:33:17;2.73;;;2.07;;
757;SDS011;363;48.764;9.172;2024-02-14T07:35:43;3.73;;;2.03;;
757;SDS011;363;48.764;9.172;2024-02-14T07:38:12;2.90;;;2.65;;
757;SDS011;363;48.764;9.172;2024-02-14T07:40:37;2.30;;;1.70;;
757;SDS011;363;48.764;9.172;2024-02-14T07:43:04;2.75;;;1.85;;
757;SDS011;363;48.764;9.172;2024-02-14T07:45:32;2.20;;;2.00;;
757;SDS011;363;48.764;9.172;2024-02-14T07:47:57;3.87;;;2.03;;
757;SDS011;363;48.764;9.172;2024-02-14T07:50:23;3.30;;;2.40;;
757;SDS011;363;48.764;9.172;2024-02-14T07:52:48;3.30;;;2.30;;
757;SDS011;363;48.764;9.172;2024-02-14T07:55:14;5.37;;;2.87;;
757;SDS011;363;48.764;9.172;2024-02-14T07:57:40;5.17;;;2.53;;
757;SDS011;363;48.764;9.172;2024-02-14T08:00:07;3.78;;;2.95;;
757;SDS011;363;48.764;9.172;2024-02-14T08:02:34;2.90;;;2.65;;
757;SDS011;363;48.764;9.172;2024-02-14T08:05:01;8.77;;;6.72;;
757;SDS011;363;48.764;9.172;2024-02-14T08:07:27;3.10;;;2.30;;
757;SDS011;363;48.764;9.172;2024-02-14T08:09:52;3.70;;;2.40;;
757;SDS011;363;48.764;9.172;2024-02-14T08:12:19;4.45;;;2.72;;
757;SDS011;363;48.764;9.172;2024-02-14T08:14:44;4.93;;;2.67;;
757;SDS011;363;48.764;9.172;2024-02-14T08:17:10;2.70;;;2.50;;
757;SDS011;363;48.764;9.172;2024-02-14T08:19:36;3.90;;;2.40;;
757;SDS011;363;48.764;9.172;2024-02-14T08:22:01;5.00;;;3.00;;
757;SDS011;363;48.764;9.172;2024-02-14T08:24:27;6.03;;;2.90;;
757;SDS011;363;48.764;9.172;2024-02-14T08:26:53;3.77;;;2.67;;
757;SDS011;363;48.764;9.172;2024-02-14T08:29:19;3.38;;;2.70;;
757;SDS011;363;48.764;9.172;2024-02-14T08:31:45;2.60;;;2.22;;
757;SDS011;363;48.764;9.172;2024-02-14T08:34:11;4.25;;;2.53;;
757;SDS011;363;48.764;9.172;2024-02-14T08:36:37;4.07;;;3.20;;
757;SDS011;363;48.764;9.172;2024-02-14T08:39:07;4.95;;;3.25;;
757;SDS011;363;48.764;9.172;2024-02-14T08:41:33;5.90;;;2.65;;
757;SDS011;363;48.764;9.172;2024-02-14T08:43:58;6.63;;;2.80;;
757;SDS011;363;48.764;9.172;2024-02-14T08:46:24;6.60;;;3.20;;
757;SDS011;363;48.764;9.172;2024-02-14T08:48:50;3.67;;;2.70;;
757;SDS011;363;48.764;9.172;2024-02-14T08:51:16;4.20;;;2.40;;
757;SDS011;363;48.764;9.172;2024-02-14T08:53:45;4.03;;;2.40;;
757;SDS011;363;48.764;9.172;2024-02-14T08:56:11;7.63;;;3.90;;
757;SDS011;363;48.764;9.172;2024-02-14T08:58:37;10.43;;;5.32;;
757;SDS011;363;48.764;9.172;2024-02-14T09:01:03;6.65;;;2.28;;
757;SDS011;363;48.764;9.172;2024-02-14T09:03:29;2.90;;;2.07;;
757;SDS011;363;48.764;9.172;2024-02-14T09:05:56;3.58;;;1.95;;
757;SDS011;363;48.764;9.172;2024-02-14T09:08:22;3.85;;;1.88;;
757;SDS011;363;48.764;9.172;2024-02-14T09:10:49;10.68;;;2.80;;
757;SDS011;363;48.764;9.172;2024-02-14T09:13:17;2.25;;;1.75;;
757;SDS011;363;48.764;9.172;2024-02-14T09:15:43;2.63;;;1.65;;
757;SDS011;363;48.764;9.172;2024-02-14T09:18:09;2.90;;;2.33;;
757;SDS011;363;48.764;9.172;2024-02-14T09:20:35;3.00;;;1.70;;
757;SDS011;363;48.764;9.172;2024-02-14T09:23:02;2.47;;;1.92;;
757;SDS011;363;48.764;9.172;2024-02-14T09:25:29;2.58;;;2.10;;
757;SDS011;363;48.764;9.172;2024-02-14T09:27:54;3.40;;;1.60;;
757;SDS011;363;48.764;9.172;2024-02-14T09:30:20;3.13;;;1.80;;
757;SDS011;363;48.764;9.172;2024-02-14T09:32:45;1.93;;;1.70;;
757;SDS011;363;48.764;9.172;2024-02-14T09:35:12;4.00;;;2.20;;
757;SDS011;363;48.764;9.172;2024-02-14T09:37:38;2.10;;;1.53;;
757;SDS011;363;48.764;9.172;2024-02-14T09:40:04;2.87;;;1.60;;
757;SDS011;363;48.764;9.172;2024-02-14T09:42:43;2.60;;;1.85;;
757;SDS011;363;48.764;9.172;2024-02-14T09:45:14;2.30;;;1.70;;
757;SDS011;363;48.764;9.172;2024-02-14T09:47:40;1.88;;;1.50;;
757;SDS011;363;48.764;9.172;2024-02-14T09:50:06;1.85;;;1.60;;
757;SDS011;363;48.764;9.172;2024-02-14T09:52:33;2.72;;;1.85;;
757;SDS011;363;48.764;9.172;2024-02-14T09:54:59;1.57;;;1.47;;
757;SDS011;363;48.764;9.172;2024-02-14T09:57:27;2.95;;;1.50;;
757;SDS011;363;48.764;9.172;2024-02-14T09:59:54;2.10;;;1.25;;
757;SDS011;363;48.764;9.172;2024-02-14T10:02:21;1.50;;;1.40;;
757;SDS011;363;48.764;9.172;2024-02-14T10:04:47;2.60;;;1.50;;
757;SDS011;363;48.764;9.172;2024-02-14T10:07:12;3.07;;;1.53;;
757;SDS011;363;48.764;9.172;2024-02-14T10:09:42;1.70;;;1.40;;
757;SDS011;363;48.764;9.172;2024-02-14T10:12:08;1.60;;;1.38;;
757;SDS011;363;48.764;9.172;2024-02-14T10:14:34;6.18;;;1.40;;
757;SDS011;363;48.764;9.172;2024-02-14T10:17:01;1.52;;;1.40;;
757;SDS011;363;48.764;9.172;2024-02-14T10:19:28;1.50;;;1.40;;
757;SDS011;363;48.764;9.172;2024-02-14T10:21:59;2.60;;;1.47;;
757;SDS011;363;48.764;9.172;2024-02-14T10:24:27;1.80;;;1.25;;
757;SDS011;363;48.764;9.172;2024-02-14T10:26:55;2.70;;;1.40;;
757;SDS011;363;48.764;9.172;2024-02-14T10:29:25;2.20;;;1.83;;
757;SDS011;363;48.764;9.172;2024-02-14T10:31:52;1.73;;;1.23;;
757;SDS011;363;48.764;9.172;2024-02-14T10:34:18;2.15;;;1.52;;
757;SDS011;363;48.764;9.172;2024-02-14T10:36:49;1.77;;;1.30;;
757;SDS011;363;48.764;9.172;2024-02-14T10:39:16;1.50;;;1.35;;
757;SDS011;363;48.764;9.172;2024-02-14T10:41:44;3.10;;;1.70;;
757;SDS011;363;48.764;9.172;2024-02-14T10:44:09;3.83;;;2.60;;
757;SDS011;363;48.764;9.172;2024-02-14T10:46:37;2.88;;;1.23;;
757;SDS011;363;48.764;9.172;2024-02-14T10:49:05;4.13;;;1.30;;
757;SDS011;363;48.764;9.172;2024-02-14T10:51:32;2.13;;;1.20;;
757;SDS011;363;48.764;9.172;2024-02-14T10:54:00;2.92;;;2.20;;
757;SDS011;363;48.764;9.172;2024-02-14T10:56:28;1.30;;;1.15;;
757;SDS011;363;48.764;9.172;2024-02-14T10:58:57;1.38;;;1.27;;
757;SDS011;363;48.764;9.172;2024-02-14T11:01:27;2.28;;;1.45;;
757;SDS011;363;48.764;9.172;2024-02-14T11:03:57;2.17;;;1.65;;
757;SDS011;363;48.764;9.172;2024-02-14T11:06:24;1.80;;;1.33;;
757;SDS011;363;48.764;9.172;2024-02-14T11:09:01;1.13;;;1.00;;
757;SDS011;363;48.764;9.172;2024-02-14T11:11:32;2.15;;;1.48;;
757;SDS011;363;48.764;9.172;2024-02-14T11:13:58;2.23;;;1.50;;
757;SDS011;363;48.764;9.172;2024-02-14T11:16:27;1.40;;;1.30;;
757;SDS011;363;48.764;9.172;2024-02-14T11:18:54;2.20;;;1.30;;
757;SDS011;363;48.764;9.172;2024-02-14T11:21:35;1.83;;;1.30;;
757;SDS011;363;48.764;9.172;2024-02-14T11:24:11;6.13;;;1.80;;
757;SDS011;363;48.764;9.172;2024-02-14T11:26:49;1.30;;;1.20;;
757;SDS011;363;48.764;9.172;2024-02-14T11:29:16;1.20;;;1.10;;
757;SDS011;363;48.764;9.172;2024-02-14T11:31:43;1.40;;;1.10;;
757;SDS011;363;48.764;9.172;2024-02-14T11:34:12;1.35;;;1.13;;
757;SDS011;363;48.764;9.172;2024-02-14T11:36:39;2.88;;;1.50;;
757;SDS011;363;48.764;9.172;2024-02-14T11:39:08;1.10;;;1.00;;
757;SDS011;363;48.764;9.172;2024-02-14T11:41:34;2.80;;;1.07;;
757;SDS011;363;48.764;9.172;2024-02-14T11:44:03;1.30;;;0.82;;
757;SDS011;363;48.764;9.172;2024-02-14T11:46:33;1.30;;;1.20;;
757;SDS011;363;48.764;9.172;2024-02-14T11:49:00;1.55;;;0.90;;
757;SDS011;363;48.764;9.172;2024-02-14T11:51:30;2.42;;;1.10;;
757;SDS011;363;48.764;9.172;2024-02-14T11:54:03;5.53;;;2.15;;
757;SDS011;363;48.764;9.172;2024-02-14T11:56:31;4.82;;;1.75;;
757;SDS011;363;48.764;9.172;2024-02-14T11:59:01;1.20;;;1.00;;
757;SDS011;363;48.764;9.172;2024-02-14T12:01:28;1.40;;;1.00;;
757;SDS011;363;48.764;9.172;2024-02-14T12:03:58;1.70;;;1.38;;
757;SDS011;363;48.764;9.172;2024-02-14T12:06:34;2.17;;;1.50;;
757;SDS011;363;48.764;9.172;2024-02-14T12:09:02;2.55;;;1.60;;
757;SDS011;363;48.764;9.172;2024-02-14T12:11:34;2.55;;;1.13;;
757;SDS011;363;48.764;9.172;2024-02-14T12:14:07;1.20;;;1.08;;
757;SDS011;363;48.764;9.172;2024-02-14T12:16:35;1.48;;;1.30;;
757;SDS011;363;48.764;9.172;2024-02-14T12:19:05;1.48;;;1.00;;
757;SDS011;363;48.764;9.172;2024-02-14T12:21:33;1.25;;;1.15;;
757;SDS011;363;48.764;9.172;2024-02-14T12:24:07;3.35;;;2.40;;
757;SDS011;363;48.764;9.172;2024-02-14T12:26:33;1.27;;;1.10;;
757;SDS011;363;48.764;9.172;2024-02-14T12:29:03;1.35;;;1.15;;
757;SDS011;363;48.764;9.172;2024-02-14T12:31:29;1.50;;;1.13;;
757;SDS011;363;48.764;9.172;2024-02-14T12:33:59;1.80;;;1.00;;
757;SDS011;363;48.764;9.172;2024-02-14T12:36:30;2.35;;;1.25;;
757;SDS011;363;48.764;9.172;2024-02-14T12:38:57;1.55;;;1.23;;
757;SDS011;363;48.764;9.172;2024-02-14T12:41:23;2.17;;;1.07;;
757;SDS011;363;48.764;9.172;2024-02-14T12:43:51;1.55;;;1.10;;
757;SDS011;363;48.764;9.172;2024-02-14T12:46:16;2.40;;;1.43;;
757;SDS011;363;48.764;9.172;2024-02-14T12:48:45;1.20;;;1.10;;
757;SDS011;363;48.764;9.172;2024-02-14T12:51:10;1.73;;;1.20;;
757;SDS011;363;48.764;9.172;2024-02-14T12:53:36;1.10;;;0.80;;
757;SDS011;363;48.764;9.172;2024-02-14T12:56:02;1.10;;;0.77;;
757;SDS011;363;48.764;9.172;2024-02-14T12:58:29;1.17;;;1.00;;
757;SDS011;363;48.764;9.172;2024-02-14T13:00:55;1.27;;;1.10;;
757;SDS011;363;48.764;9.172;2024-02-14T13:03:21;1.83;;;0.97;;
757;SDS011;363;48.764;9.172;2024-02-14T13:05:47;2.17;;;0.90;;
757;SDS011;363;48.764;9.172;2024-02-14T13:08:12;2.13;;;1.60;;
757;SDS011;363;48.764;9.172;2024-02-14T13:10:38;5.93;;;1.30;;
757;SDS011;363;48.764;9.172;2024-02-14T13:13:04;1.20;;;1.10;;
757;SDS011;363;48.764;9.172;2024-02-14T13:15:29;1.53;;;1.30;;
757;SDS011;363;48.764;9.172;2024-02-14T13:17:55;2.13;;;1.40;;
757;SDS011;363;48.764;9.172;2024-02-14T13:20:23;2.55;;;2.00;;
757;SDS011;363;48.764;9.172;2024-02-14T13:22:49;1.33;;;1.10;;
757;SDS011;363;48.764;9.172;2024-02-14T13:25:14;1.30;;;0.90;;
757;SDS011;363;48.764;9.172;2024-02-14T13:27:40;1.10;;;0.90;;
757;SDS011;363;48.764;9.172;2024-02-14T13:30:06;1.20;;;1.07;;
757;SDS011;363;48.764;9.172;2024-02-14T13:32:34;1.08;;;0.80;;
757;SDS011;363;48.764;9.172;2024-02-14T13:35:00;1.13;;;1.00;;
757;SDS011;363;48.764;9.172;2024-02-14T13:37:25;2.60;;;1.50;;
757;SDS011;363;48.764;9.172;2024-02-14T13:39:52;1.20;;;1.00;;
757;SDS011;363;48.764;9.172;2024-02-14T13:42:18;1.13;;;0.70;;
757;SDS011;363;48.764;9.172;2024-02-14T13:44:43;1.40;;;1.13;;
757;SDS011;363;48.764;9.172;2024-02-14T13:47:10;3.20;;;1.20;;
757;SDS011;363;48.764;9.172;2024-02-14T13:49:35;1.35;;;0.80;;
757;SDS011;363;48.764;9.172;2024-02-14T13:52:01;2.50;;;1.10;;
757;SDS011;363;48.764;9.172;2024-02-14T13:54:27;1.40;;;0.80;;
757;SDS011;363;48.764;9.172;2024-02-14T13:56:52;2.20;;;0.80;;
757;SDS011;363;48.764;9.172;2024-02-14T13:59:18;2.60;;;1.90;;
757;SDS011;363;48.764;9.172;2024-02-14T14:01:44;1.83;;;1.33;;
757;SDS011;363;48.764;9.172;2024-02-14T14:04:11;2.65;;;2.38;;
757;SDS011;363;48.764;9.172;2024-02-14T14:06:37;2.05;;;0.80;;
757;SDS011;363;48.764;9.172;2024-02-14T14:09:04;2.63;;;0.90;;
757;SDS011;363;48.764;9.172;2024-02-14T14:11:32;0.95;;;0.60;;
757;SDS011;363;48.764;9.172;2024-02-14T14:13:58;1.00;;;0.90;;
757;SDS011;363;48.764;9.172;2024-02-14T14:16:25;1.83;;;1.02;;
757;SDS011;363;48.764;9.172;2024-02-14T14:18:51;1.37;;;1.20;;
757;SDS011;363;48.764;9.172;2024-02-14T14:21:16;2.20;;;1.60;;
757;SDS011;363;48.764;9.172;2024-02-14T14:23:42;1.43;;;0.70;;
757;SDS011;363;48.764;9.172;2024-02-14T14:26:09;1.20;;;1.00;;
757;SDS011;363;48.764;9.172;2024-02-14T14:28:35;1.30;;;1.00;;
757;SDS011;363;48.764;9.172;2024-02-14T14:31:01;1.33;;;0.77;;
757;SDS011;363;48.764;9.172;2024-02-14T14:33:27;1.15;;;0.70;;
757;SDS011;363;48.764;9.172;2024-02-14T14:35:52;0.80;;;0.60;;
757;SDS011;363;48.764;9.172;2024-02-14T14:38:19;1.50;;;1.10;;
757;SDS011;363;48.764;9.172;2024-02-14T14:40:46;1.55;;;1.45;;
757;SDS011;363;48.764;9.172;2024-02-14T14:43:12;0.90;;;0.90;;
757;SDS011;363;48.764;9.172;2024-02-14T14:45:38;1.50;;;0.90;;
757;SDS011;363;48.764;9.172;2024-02-14T14:48:07;0.80;;;0.70;;
757;SDS011;363;48.764;9.172;2024-02-14T14:50:34;13.57;;;1.35;;
757;SDS011;363;48.764;9.172;2024-02-14T14:53:03;1.10;;;1.00;;
757;SDS011;363;48.764;9.172;2024-02-14T14:55:49;1.10;;;1.00;;
757;SDS011;363;48.764;9.172;2024-02-14T14:58:22;1.40;;;1.15;;
757;SDS011;363;48.764;9.172;2024-02-14T15:00:49;5.15;;;1.15;;
757;SDS011;363;48.764;9.172;2024-02-14T15:03:19;1.10;;;0.80;;
757;SDS011;363;48.764;9.172;2024-02-14T15:05:45;1.87;;;1.50;;
757;SDS011;363;48.764;9.172;2024-02-14T15:08:13;1.33;;;0.95;;
757;SDS011;363;48.764;9.172;2024-02-14T15:10:38;1.70;;;1.37;;
757;SDS011;363;48.764;9.172;2024-02-14T15:13:05;1.83;;;1.10;;
757;SDS011;363;48.764;9.172;2024-02-14T15:15:34;1.23;;;0.90;;
757;SDS011;363;48.764;9.172;2024-02-14T15:17:59;1.20;;;0.90;;
757;SDS011;363;48.764;9.172;2024-02-14T15:20:25;2.07;;;1.37;;
757;SDS011;363;48.764;9.172;2024-02-14T15:22:51;3.20;;;1.50;;
757;SDS011;363;48.764;9.172;2024-02-14T15:25:16;2.00;;;1.90;;
757;SDS011;363;48.764;9.172;2024-02-14T15:27:42;1.67;;;1.40;;
757;SDS011;363;48.764;9.172;2024-02-14T15:30:19;1.10;;;1.00;;
757;SDS011;363;48.764;9.172;2024-02-14T15:33:06;1.20;;;1.10;;
757;SDS011;363;48.764;9.172;2024-02-14T15:35:52;1.98;;;0.98;;
757;SDS011;363;48.764;9.172;2024-02-14T15:38:19;0.80;;;0.80;;
757;SDS011;363;48.764;9.172;2024-02-14T15:40:46;1.52;;;1.20;;
757;SDS011;363;48.764;9.172;2024-02-14T15:43:18;2.17;;;1.40;;
757;SDS011;363;48.764;9.172;2024-02-14T15:45:43;4.07;;;2.00;;
757;SDS011;363;48.764;9.172;2024-02-14T15:48:09;1.53;;;1.33;;
757;SDS011;363;48.764;9.172;2024-02-14T15:50:35;2.00;;;1.20;;
757;SDS011;363;48.764;9.172;2024-02-14T15:53:02;1.73;;;1.43;;
757;SDS011;363;48.764;9.172;2024-02-14T15:55:29;4.28;;;3.05;;
757;SDS011;363;48.764;9.172;2024-02-14T15:57:55;1.10;;;1.00;;
757;SDS011;363;48.764;9.172;2024-02-14T16:00:22;2.70;;;2.50;;
757;SDS011;363;48.764;9.172;2024-02-14T16:02:51;1.20;;;1.00;;
757;SDS011;363;48.764;9.172;2024-02-14T16:05:18;1.00;;;0.80;;
757;SDS011;363;48.764;9.172;2024-02-14T16:07:43;1.10;;;1.00;;
757;SDS011;363;48.764;9.172;2024-02-14T16:10:09;1.83;;;0.80;;
757;SDS011;363;48.764;9.172;2024-02-14T16:12:35;1.20;;;0.80;;
757;SDS011;363;48.764;9.172;2024-02-14T16:15:00;1.70;;;0.93;;
757;SDS011;363;48.764;9.172;2024-02-14T16:17:26;1.10;;;0.90;;
757;SDS011;363;48.764;9.172;2024-02-14T16:19:52;1.40;;;0.95;;
757;SDS011;363;48.764;9.172;2024-02-14T16:22:18;2.60;;;1.20;;
757;SDS011;363;48.764;9.172;2024-02-14T16:24:43;3.13;;;2.20;;
757;SDS011;363;48.764;9.172;2024-02-14T16:27:13;1.35;;;1.25;;
757;SDS011;363;48.764;9.172;2024-02-14T16:29:41;2.00;;;1.33;;
757;SDS011;363;48.764;9.172;2024-02-14T16:32:08;1.58;;;1.00;;
757;SDS011;363;48.764;9.172;2024-02-14T16:34:34;1.63;;;0.87;;
757;SDS011;363;48.764;9.172;2024-02-14T16:37:00;1.27;;;0.80;;
757;SDS011;363;48.764;9.172;2024-02-14T16:39:26;1.97;;;0.90;;
757;SDS011;363;48.764;9.172;2024-02-14T16:41:51;1.20;;;1.00;;
757;SDS011;363;48.764;9.172;2024-02-14T16:44:17;1.37;;;0.80;;
757;SDS011;363;48.764;9.172;2024-02-14T16:46:42;1.00;;;0.90;;
757;SDS011;363;48.764;9.172;2024-02-14T16:49:08;1.37;;;1.10;;
757;SDS011;363;48.764;9.172;2024-02-14T16:51:35;1.00;;;0.88;;
757;SDS011;363;48.764;9.172;2024-02-14T16:54:01;3.50;;;1.17;;
757;SDS011;363;48.764;9.172;2024-02-14T16:56:27;1.80;;;1.10;;
757;SDS011;363;48.764;9.172;2024-02-14T16:58:56;1.10;;;1.00;;
757;SDS011;363;48.764;9.172;2024-02-14T17:01:22;2.15;;;0.80;;
757;SDS011;363;48.764;9.172;2024-02-14T17:03:47;2.40;;;1.40;;
757;SDS011;363;48.764;9.172;2024-02-14T17:06:13;1.77;;;1.03;;
757;SDS011;363;48.764;9.172;2024-02-14T17:08:41;2.13;;;1.92;;
757;SDS011;363;48.764;9.172;2024-02-14T17:11:11;1.70;;;1.50;;
757;SDS011;363;48.764;9.172;2024-02-14T17:13:40;2.05;;;1.20;;
757;SDS011;363;48.764;9.172;2024-02-14T17:16:07;2.20;;;1.30;;
757;SDS011;363;48.764;9.172;2024-02-14T17:18:33;1.50;;;1.10;;
757;SDS011;363;48.764;9.172;2024-02-14T17:20:58;1.93;;;0.93;;
757;SDS011;363;48.764;9.172;2024-02-14T17:23:24;4.00;;;1.90;;